sensor_id;sensor_type;location;lat;lon;timestamp;pressure;altitude;pressure_sealevel;temperature;humidity
12172;BME280;6149;52.418;13.668;2023-04-30T00:00:37;101532.59;;;7.64;95.06
12172;BME280;6149;52.418;13.668;2023-04-30T00:03:03;101527.50;;;7.57;95.41
12172;BME280;6149;52.418;13.668;2023-04-30T00:05:36;101526.72;;;7.53;95.41
12172;BME280;6149;52.418;13.668;2023-04-30T00:08:03;101531.28;;;7.47;95.74
12172;BME280;6149;52.418;13.668;2023-04-30T00:10:31;101529.59;;;7.44;95.45
12172;BME280;6149;52.418;13.668;2023-04-30T00:13:01;101541.81;;;7.47;94.01
12172;BME280;6149;52.418;13.668;2023-04-30T00:15:29;101538.50;;;7.40;94.78
12172;BME280;6149;52.418;13.668;2023-04-30T00:17:59;101542.75;;;7.44;94.03
12172;BME280;6149;52.418;13.668;2023-04-30T00:20:27;101548.91;;;7.43;93.75
12172;BME280;6149;52.418;13.668;2023-04-30T00:22:58;101549.84;;;7.42;93.77
12172;BME280;6149;52.418;13.668;2023-04-30T00:25:27;101550.03;;;7.34;95.06
12172;BME280;6149;52.418;13.668;2023-04-30T00:27:54;101551.88;;;7.31;94.58
12172;BME280;6149;52.418;13.668;2023-04-30T00:30:22;101552.84;;;7.27;94.79
12172;BME280;6149;52.418;13.668;2023-04-30T00:32:49;101558.25;;;7.21;95.30
12172;BME280;6149;52.418;13.668;2023-04-30T00:35:17;101557.56;;;7.13;96.46
12172;BME280;6149;52.418;13.668;2023-04-30T00:37:46;101562.06;;;7.08;96.64
12172;BME280;6149;52.418;13.668;2023-04-30T00:40:14;101559.59;;;7.01;95.99
12172;BME280;6149;52.418;13.668;2023-04-30T00:42:42;101566.69;;;6.98;96.12
12172;BME280;6149;52.418;13.668;2023-04-30T00:45:10;101566.78;;;6.93;97.04
12172;BME280;6149;52.418;13.668;2023-04-30T00:47:38;101574.72;;;6.90;96.48
12172;BME280;6149;52.418;13.668;2023-04-30T00:50:08;101574.00;;;6.84;96.23
12172;BME280;6149;52.418;13.668;2023-04-30T00:52:36;101580.28;;;6.77;97.55
12172;BME280;6149;52.418;13.668;2023-04-30T00:55:05;101573.41;;;6.71;97.18
12172;BME280;6149;52.418;13.668;2023-04-30T00:57:35;101582.22;;;6.68;97.88
12172;BME280;6149;52.418;13.668;2023-04-30T01:00:04;101581.47;;;6.63;98.30
12172;BME280;6149;52.418;13.668;2023-04-30T01:02:35;101590.31;;;6.59;98.49
12172;BME280;6149;52.418;13.668;2023-04-30T01:05:04;101586.81;;;6.59;97.73
12172;BME280;6149;52.418;13.668;2023-04-30T01:07:34;101585.22;;;6.52;97.98
12172;BME280;6149;52.418;13.668;2023-04-30T01:10:04;101591.34;;;6.51;98.91
12172;BME280;6149;52.418;13.668;2023-04-30T01:12:45;101591.41;;;6.48;98.43
12172;BME280;6149;52.418;13.668;2023-04-30T01:15:26;101590.53;;;6.49;97.80
12172;BME280;6149;52.418;13.668;2023-04-30T01:18:06;101598.56;;;6.41;98.07
12172;BME280;6149;52.418;13.668;2023-04-30T01:20:46;101595.13;;;6.37;97.43
12172;BME280;6149;52.418;13.668;2023-04-30T01:23:26;101596.88;;;6.37;97.11
12172;BME280;6149;52.418;13.668;2023-04-30T01:26:10;101594.44;;;6.29;98.25
12172;BME280;6149;52.418;13.668;2023-04-30T01:28:42;101609.38;;;6.26;98.09
12172;BME280;6149;52.418;13.668;2023-04-30T01:31:13;101604.28;;;6.18;98.45
12172;BME280;6149;52.418;13.668;2023-04-30T01:33:44;101602.66;;;6.10;99.73
12172;BME280;6149;52.418;13.668;2023-04-30T01:36:44;101613.34;;;6.00;100.00
12172;BME280;6149;52.418;13.668;2023-04-30T01:39:42;101619.63;;;5.92;100.00
12172;BME280;6149;52.418;13.668;2023-04-30T01:42:20;101617.09;;;5.86;100.00
12172;BME280;6149;52.418;13.668;2023-04-30T01:45:03;101622.47;;;5.77;100.00
12172;BME280;6149;52.418;13.668;2023-04-30T01:47:53;101617.28;;;5.74;100.00
12172;BME280;6149;52.418;13.668;2023-04-30T01:50:29;101618.31;;;5.63;100.00
12172;BME280;6149;52.418;13.668;2023-04-30T01:53:06;101623.78;;;5.53;100.00
12172;BME280;6149;52.418;13.668;2023-04-30T01:55:42;101622.16;;;5.44;100.00
12172;BME280;6149;52.418;13.668;2023-04-30T01:58:12;101632.72;;;5.38;100.00
12172;BME280;6149;52.418;13.668;2023-04-30T02:00:43;101634.56;;;5.33;100.00
12172;BME280;6149;52.418;13.668;2023-04-30T02:03:11;101643.38;;;5.27;100.00
12172;BME280;6149;52.418;13.668;2023-04-30T02:05:40;101642.56;;;5.22;100.00
12172;BME280;6149;52.418;13.668;2023-04-30T02:08:09;101647.94;;;5.16;100.00
12172;BME280;6149;52.418;13.668;2023-04-30T02:10:38;101654.94;;;5.14;100.00
12172;BME280;6149;52.418;13.668;2023-04-30T02:13:06;101656.75;;;5.11;100.00
12172;BME280;6149;52.418;13.668;2023-04-30T02:15:34;101659.41;;;5.06;100.00
12172;BME280;6149;52.418;13.668;2023-04-30T02:18:05;101658.59;;;5.01;100.00
12172;BME280;6149;52.418;13.668;2023-04-30T02:20:32;101661.28;;;4.96;100.00
12172;BME280;6149;52.418;13.668;2023-04-30T02:22:59;101661.31;;;4.93;100.00
12172;BME280;6149;52.418;13.668;2023-04-30T02:25:36;101663.13;;;4.88;100.00
12172;BME280;6149;52.418;13.668;2023-04-30T02:28:03;101662.22;;;4.91;100.00
12172;BME280;6149;52.418;13.668;2023-04-30T02:30:32;101677.16;;;4.84;100.00
12172;BME280;6149;52.418;13.668;2023-04-30T02:33:02;101671.13;;;4.79;100.00
12172;BME280;6149;52.418;13.668;2023-04-30T02:35:33;101673.81;;;4.73;100.00
12172;BME280;6149;52.418;13.668;2023-04-30T02:38:01;101674.72;;;4.70;100.00
12172;BME280;6149;52.418;13.668;2023-04-30T02:40:31;101678.25;;;4.68;100.00
12172;BME280;6149;52.418;13.668;2023-04-30T02:43:02;101678.28;;;4.65;100.00
12172;BME280;6149;52.418;13.668;2023-04-30T02:45:32;101677.47;;;4.60;100.00
12172;BME280;6149;52.418;13.668;2023-04-30T02:48:02;101676.63;;;4.55;100.00
12172;BME280;6149;52.418;13.668;2023-04-30T02:50:44;101681.06;;;4.50;100.00
12172;BME280;6149;52.418;13.668;2023-04-30T02:53:12;101683.69;;;4.47;100.00
12172;BME280;6149;52.418;13.668;2023-04-30T02:55:40;101684.66;;;4.41;100.00
12172;BME280;6149;52.418;13.668;2023-04-30T02:58:07;101682.97;;;4.37;100.00
12172;BME280;6149;52.418;13.668;2023-04-30T03:00:34;101688.22;;;4.34;100.00
12172;BME280;6149;52.418;13.668;2023-04-30T03:03:02;101694.38;;;4.28;100.00
12172;BME280;6149;52.418;13.668;2023-04-30T03:05:44;101692.69;;;4.23;100.00
12172;BME280;6149;52.418;13.668;2023-04-30T03:08:11;101695.34;;;4.18;100.00
12172;BME280;6149;52.418;13.668;2023-04-30T03:10:39;101703.22;;;4.14;100.00
12172;BME280;6149;52.418;13.668;2023-04-30T03:13:07;101693.72;;;4.07;100.00
12172;BME280;6149;52.418;13.668;2023-04-30T03:15:35;101693.75;;;4.02;100.00
12172;BME280;6149;52.418;13.668;2023-04-30T03:18:05;101691.16;;;3.99;100.00
12172;BME280;6149;52.418;13.668;2023-04-30T03:20:34;101698.19;;;3.95;100.00
12172;BME280;6149;52.418;13.668;2023-04-30T03:23:02;101700.81;;;3.92;100.00
12172;BME280;6149;52.418;13.668;2023-04-30T03:25:32;101701.72;;;3.88;100.00
12172;BME280;6149;52.418;13.668;2023-04-30T03:28:00;101703.50;;;3.83;100.00
12172;BME280;6149;52.418;13.668;2023-04-30T03:30:29;101705.25;;;3.80;100.00
12172;BME280;6149;52.418;13.668;2023-04-30T03:32:58;101699.19;;;3.76;100.00
12172;BME280;6149;52.418;13.668;2023-04-30T03:35:27;101705.31;;;3.74;100.00
12172;BME280;6149;52.418;13.668;2023-04-30T03:37:58;101705.31;;;3.72;100.00
12172;BME280;6149;52.418;13.668;2023-04-30T03:40:26;101714.03;;;3.74;100.00
12172;BME280;6149;52.418;13.668;2023-04-30T03:42:53;101714.91;;;3.75;100.00
12172;BME280;6149;52.418;13.668;2023-04-30T03:45:20;101713.13;;;3.77;100.00
12172;BME280;6149;52.418;13.668;2023-04-30T03:47:48;101717.47;;;3.79;100.00
12172;BME280;6149;52.418;13.668;2023-04-30T03:50:16;101719.19;;;3.82;100.00
12172;BME280;6149;52.418;13.668;2023-04-30T03:52:43;101722.69;;;3.81;100.00
12172;BME280;6149;52.418;13.668;2023-04-30T03:55:12;101723.56;;;3.83;100.00
12172;BME280;6149;52.418;13.668;2023-04-30T03:57:40;101727.03;;;3.83;100.00
12172;BME280;6149;52.418;13.668;2023-04-30T04:00:10;101730.53;;;3.82;100.00
12172;BME280;6149;52.418;13.668;2023-04-30T04:02:39;101734.88;;;3.83;100.00
12172;BME280;6149;52.418;13.668;2023-04-30T04:05:06;101723.56;;;3.83;100.00
12172;BME280;6149;52.418;13.668;2023-04-30T04:07:34;101739.25;;;3.81;100.00
12172;BME280;6149;52.418;13.668;2023-04-30T04:10:01;101734.91;;;3.80;100.00
12172;BME280;6149;52.418;13.668;2023-04-30T04:12:29;101743.63;;;3.81;100.00
12172;BME280;6149;52.418;13.668;2023-04-30T04:14:57;101739.25;;;3.81;100.00
12172;BME280;6149;52.418;13.668;2023-04-30T04:17:24;101741.88;;;3.83;100.00
12172;BME280;6149;52.418;13.668;2023-04-30T04:19:50;101744.44;;;3.89;100.00
12172;BME280;6149;52.418;13.668;2023-04-30T04:22:18;101748.78;;;3.93;100.00
12172;BME280;6149;52.418;13.668;2023-04-30T04:24:45;101753.06;;;4.06;100.00
12172;BME280;6149;52.418;13.668;2023-04-30T04:27:13;101754.75;;;4.09;100.00
12172;BME280;6149;52.418;13.668;2023-04-30T04:29:43;101756.47;;;4.11;100.00
12172;BME280;6149;52.418;13.668;2023-04-30T04:32:11;101759.00;;;4.23;100.00
12172;BME280;6149;52.418;13.668;2023-04-30T04:34:38;101756.34;;;4.26;100.00
12172;BME280;6149;52.418;13.668;2023-04-30T04:37:06;101765.03;;;4.31;100.00
12172;BME280;6149;52.418;13.668;2023-04-30T04:39:33;101763.25;;;4.35;100.00
12172;BME280;6149;52.418;13.668;2023-04-30T04:42:05;101776.31;;;4.40;100.00
12172;BME280;6149;52.418;13.668;2023-04-30T04:44:33;101776.28;;;4.44;100.00
12172;BME280;6149;52.418;13.668;2023-04-30T04:47:05;101781.44;;;4.49;100.00
12172;BME280;6149;52.418;13.668;2023-04-30T04:49:34;101777.94;;;4.53;100.00
12172;BME280;6149;52.418;13.668;2023-04-30T04:52:01;101778.72;;;4.61;100.00
12172;BME280;6149;52.418;13.668;2023-04-30T04:54:30;101790.03;;;4.66;100.00
12172;BME280;6149;52.418;13.668;2023-04-30T04:56:58;101796.91;;;4.79;100.00
12172;BME280;6149;52.418;13.668;2023-04-30T04:59:35;101786.25;;;4.91;100.00
12172;BME280;6149;52.418;13.668;2023-04-30T05:02:04;101793.22;;;4.95;100.00
12172;BME280;6149;52.418;13.668;2023-04-30T05:04:32;101804.47;;;5.03;100.00
12172;BME280;6149;52.418;13.668;2023-04-30T05:07:00;101804.44;;;5.08;100.00
12172;BME280;6149;52.418;13.668;2023-04-30T05:09:31;101811.38;;;5.12;100.00
12172;BME280;6149;52.418;13.668;2023-04-30T05:11:59;101814.75;;;5.20;100.00
12172;BME280;6149;52.418;13.668;2023-04-30T05:14:31;101816.44;;;5.27;100.00
12172;BME280;6149;52.418;13.668;2023-04-30T05:17:00;101815.47;;;5.36;100.00
12172;BME280;6149;52.418;13.668;2023-04-30T05:19:35;101816.25;;;5.44;100.00
12172;BME280;6149;52.418;13.668;2023-04-30T05:22:03;101824.97;;;5.45;100.00
12172;BME280;6149;52.418;13.668;2023-04-30T05:24:31;101827.47;;;5.57;100.00
12172;BME280;6149;52.418;13.668;2023-04-30T05:26:58;101832.63;;;5.61;100.00
12172;BME280;6149;52.418;13.668;2023-04-30T05:29:28;101830.72;;;5.74;100.00
12172;BME280;6149;52.418;13.668;2023-04-30T05:31:57;101835.00;;;5.80;100.00
12172;BME280;6149;52.418;13.668;2023-04-30T05:34:25;101837.53;;;5.90;100.00
12172;BME280;6149;52.418;13.668;2023-04-30T05:36:54;101833.91;;;5.97;100.00
12172;BME280;6149;52.418;13.668;2023-04-30T05:39:22;101843.34;;;6.11;100.00
12172;BME280;6149;52.418;13.668;2023-04-30T05:41:50;101853.72;;;6.20;100.00
12172;BME280;6149;52.418;13.668;2023-04-30T05:44:16;101847.28;;;6.37;100.00
12172;BME280;6149;52.418;13.668;2023-04-30T05:46:45;101850.47;;;6.59;100.00
12172;BME280;6149;52.418;13.668;2023-04-30T05:49:12;101857.03;;;6.83;100.00
12172;BME280;6149;52.418;13.668;2023-04-30T05:51:39;101853.97;;;7.08;100.00
12172;BME280;6149;52.418;13.668;2023-04-30T05:54:12;101858.94;;;7.23;97.84
12172;BME280;6149;52.418;13.668;2023-04-30T05:56:40;101854.91;;;7.48;95.46
12172;BME280;6149;52.418;13.668;2023-04-30T05:59:06;101856.38;;;7.63;94.26
12172;BME280;6149;52.418;13.668;2023-04-30T06:01:34;101855.88;;;7.86;93.32
12172;BME280;6149;52.418;13.668;2023-04-30T06:04:00;101869.59;;;8.01;90.88
12172;BME280;6149;52.418;13.668;2023-04-30T06:06:31;101869.09;;;8.23;88.47
12172;BME280;6149;52.418;13.668;2023-04-30T06:08:58;101864.22;;;8.45;89.48
12172;BME280;6149;52.418;13.668;2023-04-30T06:11:33;101864.84;;;8.90;88.15
12172;BME280;6149;52.418;13.668;2023-04-30T06:14:03;101881.81;;;9.14;81.96
12172;BME280;6149;52.418;13.668;2023-04-30T06:16:31;101886.59;;;9.30;82.56
12172;BME280;6149;52.418;13.668;2023-04-30T06:19:00;101885.38;;;9.44;78.50
12172;BME280;6149;52.418;13.668;2023-04-30T06:21:29;101892.38;;;9.45;76.43
12172;BME280;6149;52.418;13.668;2023-04-30T06:23:57;101884.22;;;9.54;76.78
12172;BME280;6149;52.418;13.668;2023-04-30T06:26:25;101888.22;;;9.67;78.98
12172;BME280;6149;52.418;13.668;2023-04-30T06:28:55;101887.91;;;9.78;75.66
12172;BME280;6149;52.418;13.668;2023-04-30T06:31:23;101884.81;;;9.93;76.03
12172;BME280;6149;52.418;13.668;2023-04-30T06:33:51;101886.38;;;10.00;75.49
12172;BME280;6149;52.418;13.668;2023-04-30T06:36:19;101887.72;;;10.13;74.64
12172;BME280;6149;52.418;13.668;2023-04-30T06:38:48;101882.34;;;10.16;73.00
12172;BME280;6149;52.418;13.668;2023-04-30T06:41:15;101874.47;;;10.15;71.77
12172;BME280;6149;52.418;13.668;2023-04-30T06:43:43;101879.63;;;10.19;73.14
12172;BME280;6149;52.418;13.668;2023-04-30T06:46:11;101883.63;;;10.32;71.90
12172;BME280;6149;52.418;13.668;2023-04-30T06:48:39;101884.31;;;10.39;71.51
12172;BME280;6149;52.418;13.668;2023-04-30T06:51:09;101892.06;;;10.44;70.41
12172;BME280;6149;52.418;13.668;2023-04-30T06:53:35;101898.09;;;10.49;72.29
12172;BME280;6149;52.418;13.668;2023-04-30T06:56:02;101890.06;;;10.52;68.18
12172;BME280;6149;52.418;13.668;2023-04-30T06:58:31;101890.59;;;10.63;67.38
12172;BME280;6149;52.418;13.668;2023-04-30T07:01:03;101890.78;;;11.10;70.49
12172;BME280;6149;52.418;13.668;2023-04-30T07:03:34;101888.13;;;11.10;67.62
12172;BME280;6149;52.418;13.668;2023-04-30T07:06:02;101891.38;;;10.91;66.05
12172;BME280;6149;52.418;13.668;2023-04-30T07:08:31;101897.06;;;10.79;66.66
12172;BME280;6149;52.418;13.668;2023-04-30T07:11:01;101899.34;;;10.65;65.96
12172;BME280;6149;52.418;13.668;2023-04-30T07:13:31;101892.78;;;10.77;66.60
12172;BME280;6149;52.418;13.668;2023-04-30T07:15:58;101902.06;;;10.88;66.16
12172;BME280;6149;52.418;13.668;2023-04-30T07:18:32;101895.16;;;10.84;67.12
12172;BME280;6149;52.418;13.668;2023-04-30T07:21:01;101896.97;;;10.82;68.31
12172;BME280;6149;52.418;13.668;2023-04-30T07:23:29;101899.84;;;11.02;66.99
12172;BME280;6149;52.418;13.668;2023-04-30T07:26:04;101894.28;;;11.10;65.91
12172;BME280;6149;52.418;13.668;2023-04-30T07:28:34;101893.31;;;11.13;66.12
12172;BME280;6149;52.418;13.668;2023-04-30T07:31:04;101888.16;;;11.33;64.88
12172;BME280;6149;52.418;13.668;2023-04-30T07:33:33;101890.81;;;11.33;64.82
12172;BME280;6149;52.418;13.668;2023-04-30T07:36:01;101896.09;;;11.33;63.02
12172;BME280;6149;52.418;13.668;2023-04-30T07:38:32;101895.09;;;11.37;63.47
12172;BME280;6149;52.418;13.668;2023-04-30T07:40:59;101902.59;;;11.49;63.13
12172;BME280;6149;52.418;13.668;2023-04-30T07:43:28;101897.63;;;11.40;63.32
12172;BME280;6149;52.418;13.668;2023-04-30T07:45:57;101896.72;;;11.41;63.41
12172;BME280;6149;52.418;13.668;2023-04-30T07:48:25;101892.97;;;11.47;63.22
12172;BME280;6149;52.418;13.668;2023-04-30T07:50:53;101903.47;;;11.73;62.40
12172;BME280;6149;52.418;13.668;2023-04-30T07:53:22;101904.72;;;11.88;60.93
12172;BME280;6149;52.418;13.668;2023-04-30T07:55:49;101895.66;;;11.93;58.76
12172;BME280;6149;52.418;13.668;2023-04-30T07:58:17;101902.75;;;11.93;60.80
12172;BME280;6149;52.418;13.668;2023-04-30T08:00:44;101902.41;;;11.79;58.93
12172;BME280;6149;52.418;13.668;2023-04-30T08:03:12;101899.59;;;11.83;59.60
12172;BME280;6149;52.418;13.668;2023-04-30T08:05:41;101901.75;;;11.95;59.91
12172;BME280;6149;52.418;13.668;2023-04-30T08:08:09;101896.19;;;12.03;59.25
12172;BME280;6149;52.418;13.668;2023-04-30T08:10:35;101909.53;;;12.23;58.94
12172;BME280;6149;52.418;13.668;2023-04-30T08:13:06;101909.16;;;12.32;56.35
12172;BME280;6149;52.418;13.668;2023-04-30T08:15:36;101904.41;;;12.41;54.51
12172;BME280;6149;52.418;13.668;2023-04-30T08:18:05;101905.00;;;12.49;53.83
12172;BME280;6149;52.418;13.668;2023-04-30T08:20:36;101909.19;;;12.54;57.61
12172;BME280;6149;52.418;13.668;2023-04-30T08:23:04;101908.00;;;12.39;54.77
12172;BME280;6149;52.418;13.668;2023-04-30T08:25:35;101905.22;;;12.43;53.66
12172;BME280;6149;52.418;13.668;2023-04-30T08:28:09;101902.09;;;12.55;54.37
12172;BME280;6149;52.418;13.668;2023-04-30T08:30:35;101905.56;;;12.77;54.54
12172;BME280;6149;52.418;13.668;2023-04-30T08:33:03;101899.38;;;12.98;53.50
12172;BME280;6149;52.418;13.668;2023-04-30T08:35:31;101919.16;;;13.12;53.83
12172;BME280;6149;52.418;13.668;2023-04-30T08:38:01;101915.16;;;13.23;54.96
12172;BME280;6149;52.418;13.668;2023-04-30T08:40:38;101919.88;;;13.17;52.33
12172;BME280;6149;52.418;13.668;2023-04-30T08:43:09;101915.63;;;13.11;51.31
12172;BME280;6149;52.418;13.668;2023-04-30T08:45:38;101918.75;;;13.00;50.13
12172;BME280;6149;52.418;13.668;2023-04-30T08:48:10;101920.09;;;13.11;50.90
12172;BME280;6149;52.418;13.668;2023-04-30T08:50:39;101921.56;;;12.76;50.28
12172;BME280;6149;52.418;13.668;2023-04-30T08:53:14;101919.75;;;12.98;50.73
12172;BME280;6149;52.418;13.668;2023-04-30T08:55:48;101918.78;;;13.41;51.04
12172;BME280;6149;52.418;13.668;2023-04-30T08:58:15;101926.09;;;13.56;48.38
12172;BME280;6149;52.418;13.668;2023-04-30T09:00:43;101912.41;;;13.84;48.87
12172;BME280;6149;52.418;13.668;2023-04-30T09:03:13;101919.69;;;13.99;45.31
12172;BME280;6149;52.418;13.668;2023-04-30T09:05:40;101918.75;;;14.19;45.93
12172;BME280;6149;52.418;13.668;2023-04-30T09:08:07;101918.34;;;14.47;45.27
12172;BME280;6149;52.418;13.668;2023-04-30T09:10:41;101927.09;;;14.68;43.10
12172;BME280;6149;52.418;13.668;2023-04-30T09:13:15;101931.41;;;14.88;41.72
12172;BME280;6149;52.418;13.668;2023-04-30T09:15:41;101932.19;;;14.73;40.56
12172;BME280;6149;52.418;13.668;2023-04-30T09:18:12;101926.09;;;14.88;41.19
12172;BME280;6149;52.418;13.668;2023-04-30T09:20:55;101935.09;;;14.85;42.36
12172;BME280;6149;52.418;13.668;2023-04-30T09:23:23;101935.91;;;15.04;40.68
12172;BME280;6149;52.418;13.668;2023-04-30T09:25:59;101934.75;;;15.10;41.92
12172;BME280;6149;52.418;13.668;2023-04-30T09:28:53;101926.09;;;15.22;41.73
12172;BME280;6149;52.418;13.668;2023-04-30T09:31:21;101930.03;;;15.32;41.95
12172;BME280;6149;52.418;13.668;2023-04-30T09:33:52;101930.03;;;15.32;41.17
12172;BME280;6149;52.418;13.668;2023-04-30T09:36:23;101931.50;;;15.55;39.19
12172;BME280;6149;52.418;13.668;2023-04-30T09:38:52;101935.13;;;15.54;36.54
12172;BME280;6149;52.418;13.668;2023-04-30T09:41:20;101941.47;;;15.69;36.00
12172;BME280;6149;52.418;13.668;2023-04-30T09:43:50;101939.66;;;15.35;35.08
12172;BME280;6149;52.418;13.668;2023-04-30T09:46:18;101926.56;;;15.48;36.87
12172;BME280;6149;52.418;13.668;2023-04-30T09:48:56;101932.31;;;15.57;36.36
12172;BME280;6149;52.418;13.668;2023-04-30T09:51:24;101938.00;;;15.67;35.64
12172;BME280;6149;52.418;13.668;2023-04-30T09:53:55;101930.00;;;16.00;35.00
12172;BME280;6149;52.418;13.668;2023-04-30T09:56:33;101924.25;;;16.39;35.71
12172;BME280;6149;52.418;13.668;2023-04-30T09:59:07;101923.31;;;16.40;34.83
12172;BME280;6149;52.418;13.668;2023-04-30T10:01:36;101919.00;;;16.06;35.36
12172;BME280;6149;52.418;13.668;2023-04-30T10:04:06;101914.78;;;16.18;37.13
12172;BME280;6149;52.418;13.668;2023-04-30T10:06:35;101912.22;;;16.32;35.03
12172;BME280;6149;52.418;13.668;2023-04-30T10:09:04;101910.38;;;16.48;36.35
12172;BME280;6149;52.418;13.668;2023-04-30T10:11:39;101904.69;;;16.54;35.34
12172;BME280;6149;52.418;13.668;2023-04-30T10:14:11;101902.28;;;16.50;35.29
12172;BME280;6149;52.418;13.668;2023-04-30T10:16:43;101909.78;;;16.43;33.82
12172;BME280;6149;52.418;13.668;2023-04-30T10:19:14;101905.66;;;16.37;35.65
12172;BME280;6149;52.418;13.668;2023-04-30T10:21:48;101901.25;;;16.52;33.95
12172;BME280;6149;52.418;13.668;2023-04-30T10:24:17;101907.44;;;16.37;35.74
12172;BME280;6149;52.418;13.668;2023-04-30T10:26:47;101902.22;;;16.20;34.29
12172;BME280;6149;52.418;13.668;2023-04-30T10:29:26;101901.69;;;16.13;33.57
12172;BME280;6149;52.418;13.668;2023-04-30T10:31:55;101899.78;;;15.99;35.32
12172;BME280;6149;52.418;13.668;2023-04-30T10:34:48;101897.38;;;15.95;34.24
12172;BME280;6149;52.418;13.668;2023-04-30T10:37:28;101893.59;;;15.99;32.93
12172;BME280;6149;52.418;13.668;2023-04-30T10:40:03;101899.97;;;16.12;34.58
12172;BME280;6149;52.418;13.668;2023-04-30T10:42:34;101890.31;;;16.10;35.93
12172;BME280;6149;52.418;13.668;2023-04-30T10:45:10;101893.25;;;15.89;31.90
12172;BME280;6149;52.418;13.668;2023-04-30T10:47:41;101880.69;;;15.91;33.73
12172;BME280;6149;52.418;13.668;2023-04-30T10:50:11;101881.03;;;16.01;33.64
12172;BME280;6149;52.418;13.668;2023-04-30T10:52:38;101880.25;;;16.15;36.24
12172;BME280;6149;52.418;13.668;2023-04-30T10:55:06;101877.75;;;16.43;35.33
12172;BME280;6149;52.418;13.668;2023-04-30T10:57:40;101883.81;;;16.31;34.01
12172;BME280;6149;52.418;13.668;2023-04-30T11:00:27;101885.59;;;16.15;34.85
12172;BME280;6149;52.418;13.668;2023-04-30T11:03:02;101884.78;;;15.97;32.99
12172;BME280;6149;52.418;13.668;2023-04-30T11:05:35;101886.19;;;15.88;35.71
12172;BME280;6149;52.418;13.668;2023-04-30T11:08:04;101888.44;;;15.63;33.37
12172;BME280;6149;52.418;13.668;2023-04-30T11:10:33;101877.19;;;15.58;35.86
12172;BME280;6149;52.418;13.668;2023-04-30T11:13:05;101875.75;;;15.51;35.63
12172;BME280;6149;52.418;13.668;2023-04-30T11:15:40;101876.94;;;15.45;34.46
12172;BME280;6149;52.418;13.668;2023-04-30T11:18:08;101877.56;;;15.33;33.90
12172;BME280;6149;52.418;13.668;2023-04-30T11:20:48;101875.66;;;15.19;34.32
12172;BME280;6149;52.418;13.668;2023-04-30T11:23:16;101871.41;;;14.98;34.76
12172;BME280;6149;52.418;13.668;2023-04-30T11:25:59;101867.81;;;14.82;35.02
12172;BME280;6149;52.418;13.668;2023-04-30T11:28:27;101866.34;;;14.76;35.72
12172;BME280;6149;52.418;13.668;2023-04-30T11:31:06;101870.88;;;14.91;37.46
12172;BME280;6149;52.418;13.668;2023-04-30T11:33:33;101871.16;;;14.85;36.73
12172;BME280;6149;52.418;13.668;2023-04-30T11:36:04;101868.19;;;14.91;37.09
12172;BME280;6149;52.418;13.668;2023-04-30T11:38:34;101864.75;;;14.72;36.39
12172;BME280;6149;52.418;13.668;2023-04-30T11:41:05;101862.88;;;14.74;37.30
12172;BME280;6149;52.418;13.668;2023-04-30T11:43:33;101869.84;;;14.77;36.34
12172;BME280;6149;52.418;13.668;2023-04-30T11:46:15;101862.00;;;14.91;36.12
12172;BME280;6149;52.418;13.668;2023-04-30T11:48:45;101866.56;;;14.89;37.89
12172;BME280;6149;52.418;13.668;2023-04-30T11:51:21;101862.44;;;14.83;37.13
12172;BME280;6149;52.418;13.668;2023-04-30T11:53:55;101866.19;;;14.79;38.72
12172;BME280;6149;52.418;13.668;2023-04-30T11:56:23;101865.22;;;14.63;37.96
12172;BME280;6149;52.418;13.668;2023-04-30T11:58:52;101859.69;;;14.49;38.39
12172;BME280;6149;52.418;13.668;2023-04-30T12:01:45;101851.81;;;14.47;37.36
12172;BME280;6149;52.418;13.668;2023-04-30T12:04:19;101856.91;;;14.14;37.05
12172;BME280;6149;52.418;13.668;2023-04-30T12:06:46;101854.34;;;14.13;38.34
12172;BME280;6149;52.418;13.668;2023-04-30T12:09:13;101864.22;;;14.11;38.05
12172;BME280;6149;52.418;13.668;2023-04-30T12:11:42;101858.59;;;13.98;36.70
12172;BME280;6149;52.418;13.668;2023-04-30T12:14:11;101856.44;;;13.87;38.81
12172;BME280;6149;52.418;13.668;2023-04-30T12:16:46;101846.31;;;13.95;38.19
12172;BME280;6149;52.418;13.668;2023-04-30T12:19:14;101853.72;;;13.89;38.59
12172;BME280;6149;52.418;13.668;2023-04-30T12:21:42;101847.19;;;13.96;38.14
12172;BME280;6149;52.418;13.668;2023-04-30T12:24:13;101841.13;;;13.92;38.96
12172;BME280;6149;52.418;13.668;2023-04-30T12:26:41;101843.72;;;13.94;39.81
12172;BME280;6149;52.418;13.668;2023-04-30T12:29:08;101852.84;;;14.07;38.98
12172;BME280;6149;52.418;13.668;2023-04-30T12:31:38;101846.28;;;14.14;39.92
12172;BME280;6149;52.418;13.668;2023-04-30T12:34:11;101843.00;;;14.09;40.53
12172;BME280;6149;52.418;13.668;2023-04-30T12:36:44;101838.63;;;14.08;39.53
12172;BME280;6149;52.418;13.668;2023-04-30T12:39:13;101845.69;;;14.26;38.33
12172;BME280;6149;52.418;13.668;2023-04-30T12:41:45;101841.53;;;14.21;38.58
12172;BME280;6149;52.418;13.668;2023-04-30T12:44:19;101836.06;;;14.24;38.16
12172;BME280;6149;52.418;13.668;2023-04-30T12:46:51;101834.63;;;14.35;39.15
12172;BME280;6149;52.418;13.668;2023-04-30T12:49:35;101835.25;;;14.41;38.96
12172;BME280;6149;52.418;13.668;2023-04-30T12:52:11;101834.19;;;14.45;37.98
12172;BME280;6149;52.418;13.668;2023-04-30T12:55:16;101820.81;;;14.46;38.88
12172;BME280;6149;52.418;13.668;2023-04-30T12:58:04;101823.56;;;14.45;40.15
12172;BME280;6149;52.418;13.668;2023-04-30T13:00:48;101823.06;;;14.54;38.39
12172;BME280;6149;52.418;13.668;2023-04-30T13:03:20;101821.13;;;14.57;39.79
12172;BME280;6149;52.418;13.668;2023-04-30T13:05:51;101820.97;;;14.60;39.34
12172;BME280;6149;52.418;13.668;2023-04-30T13:08:19;101818.72;;;14.70;41.24
12172;BME280;6149;52.418;13.668;2023-04-30T13:10:47;101815.44;;;14.82;39.28